Αναφορές METAR Αεροδρομίων

 

LGTS - THESSALONIKI - GREECE
Ενημερώθηκε: 19/10/2018 17:20
Αραιές Νεφώσεις
Αραιές Νεφώσεις
 Ανεμος από ΝΝΔ
Ανεμος: ΝΝΔ 13 km/h
Θερμοκρασία: 23°C
Σημείο Δρόσου: 11°C
Υγρασία: 47%
Βαρόμετρο: 1015 hPa
Clouds: Αραιές Νεφώσεις
Visibility: 10 km
Cloud details: Αραιές Νεφώσεις 549 m
2018/10/19 14:20 LGTS 191420Z 21007KT 9999 FEW018 23/11 Q1015 NOSIG
LGLR - LARTISA - GREECE
Ενημερώθηκε: 19/10/2018 16:50
Αραιές Νεφώσεις
Αραιές Νεφώσεις
 Ανεμος από calm
Ανεμος: Απνοια
Θερμοκρασία: 25°C
Σημείο Δρόσου: 11°C
Υγρασία: 42%
Βαρόμετρο: 1015 hPa
Clouds: Αραιές Νεφώσεις
Visibility: 10 km
Cloud details: Αραιές Νεφώσεις 914 m
2018/10/19 13:50 LGLR 191350Z 00000KT 9999 FEW030 25/11 Q1015 BLU
 
LGKZ - KOZANI - GREECE
Ενημερώθηκε: 19/10/2018 16:50
Αραιές Νεφώσεις
Αραιές Νεφώσεις
 Ανεμος από calm
Ανεμος: Απνοια
Θερμοκρασία: 23°C
Σημείο Δρόσου: 6°C
Υγρασία: 33%
Βαρόμετρο: 1017 hPa
Clouds: Αραιές Νεφώσεις
Visibility: 10 km
Cloud details: Αραιές Νεφώσεις 2134 m
2018/10/19 13:50 LGKZ 191350Z 00000KT 9999 FEW070 23/06 Q1017
LGKV - KAVALA - GREECE
Ενημερώθηκε: 19/10/2018 17:20
Αραιές Νεφώσεις
Αραιές Νεφώσεις
 Ανεμος από ΝΔ
Ανεμος: ΝΔ 7 km/h
Θερμοκρασία: 22°C
Σημείο Δρόσου: 14°C
Υγρασία: 61%
Βαρόμετρο: 1015 hPa
Clouds: Αραιές Νεφώσεις
Visibility: 10 km
Cloud details: Αραιές Νεφώσεις 914 m
2018/10/19 14:20 LGKV 191420Z 23004KT 9999 FEW030 22/14 Q1015
 
LGIO - IOANNINA - GREECE
Ενημερώθηκε: 19/10/2018 14:50
NOT Current
Αίθριος
Αίθριος
 Ανεμος από varies
Ανεμος: varies 0 km/h
Θερμοκρασία: 25°C
Σημείο Δρόσου: 11°C
Υγρασία: 42%
Βαρόμετρο: 1015 hPa
Περίληψη: Αίθριος
Visibility: greater than 10 km
2018/10/19 11:50 LGIO 191150Z /////KT CAVOK 25/11 Q1015
LGBL - BOLOS - GREECE
Ενημερώθηκε: 19/10/2018 17:20
Αραιές Νεφώσεις
Αραιές Νεφώσεις
 Ανεμος από ΑΝΑ
Ανεμος: ΑΝΑ 13 km/h
Θερμοκρασία: 21°C
Σημείο Δρόσου: 16°C
Υγρασία: 73%
Βαρόμετρο: 1016 hPa
Clouds: Αραιές Νεφώσεις
Visibility: 10 km
Cloud details: Αραιές Νεφώσεις 914 m
2018/10/19 14:20 LGBL 191420Z 11007KT 9999 FEW030 21/16 Q1016
 
LGMT - MITILINI - GREECE
Ενημερώθηκε: 19/10/2018 17:20
Αραιές Νεφώσεις
Αραιές Νεφώσεις
 Ανεμος από ΒΒΔ
Ανεμος: ΒΒΔ 7 km/h
Θερμοκρασία: 23°C
Σημείο Δρόσου: 16°C
Υγρασία: 65%
Βαρόμετρο: 1015 hPa
Clouds: Αραιές Νεφώσεις
Visibility: 10 km
Cloud details: Αραιές Νεφώσεις 762 m
2018/10/19 14:20 LGMT 191420Z 34004KT 9999 FEW025 23/16 Q1015
LGAV - ATHENS - GREECE
Ενημερώθηκε: 19/10/2018 17:20
Αραιές Νεφώσεις
Αραιές Νεφώσεις
 Ανεμος από ΒΑ
Ανεμος: ΒΑ 20 km/h
Θερμοκρασία: 20°C
Σημείο Δρόσου: 15°C
Υγρασία: 73%
Βαρόμετρο: 1016 hPa
Clouds: Αραιές Νεφώσεις
Visibility: 10 km
Cloud details: Αραιές Νεφώσεις 914 m
2018/10/19 14:20 LGAV 191420Z 05011KT 9999 FEW030 20/15 Q1016 NOSIG
 
LGRP - RODOS - GREECE
Ενημερώθηκε: 19/10/2018 17:20
Αραιές Νεφώσεις
Αραιές Νεφώσεις
 Ανεμος από ΔΝΔ
Ανεμος: ΔΝΔ 11 km/h
Θερμοκρασία: 25°C
Σημείο Δρόσου: 20°C
Υγρασία: 74%
Βαρόμετρο: 1012 hPa
Clouds: Αραιές Νεφώσεις
Visibility: 9 km
Cloud details: Αραιές Νεφώσεις 762 m
2018/10/19 14:20 LGRP 191420Z 25006KT 9000 FEW025 25/20 Q1012 NOSIG
LGIR - HRAKLIO/KRITI - GREECE
Ενημερώθηκε: 19/10/2018 17:20
Αραιές Νεφώσεις
Αραιές Νεφώσεις
 Ανεμος από ΑΒΑ
Ανεμος: ΑΒΑ 7 km/h
Θερμοκρασία: 22°C
Σημείο Δρόσου: 19°C
Υγρασία: 83%
Βαρόμετρο: 1014 hPa
Clouds: Αραιές Νεφώσεις
Visibility: 10 km
Cloud details: Αραιές Νεφώσεις 762 m
2018/10/19 14:20 LGIR 191420Z 07004KT 9999 FEW025 22/19 Q1014 NOSIG
 
LGMK - MIKONOS - GREECE
Ενημερώθηκε: 19/10/2018 17:20
Αραιές Νεφώσεις
Αραιές Νεφώσεις
 Ανεμος από Β
Ανεμος: Β 26 km/h
Θερμοκρασία: 21°C
Σημείο Δρόσου: 17°C
Υγρασία: 78%
Βαρόμετρο: 1015 hPa
Clouds: Αραιές Νεφώσεις
Visibility: 8 km
Cloud details: Αραιές Νεφώσεις 305 m
2018/10/19 14:20 LGMK 191420Z 01014KT 8000 FEW010 21/17 Q1015
LGKR - KERKIRA - GREECE
Ενημερώθηκε: 19/10/2018 17:20
Αίθριος
Αίθριος
 Ανεμος από ΔΝΔ
Ανεμος: ΔΝΔ 9 km/h
Θερμοκρασία: 26°C
Σημείο Δρόσου: 15°C
Υγρασία: 51%
Βαρόμετρο: 1014 hPa
Περίληψη: Αίθριος
Visibility: greater than 10 km
2018/10/19 14:20 LGKR 191420Z 24005KT CAVOK 26/15 Q1014 NOSIG